createdAt,value
2023-04-21T00:01:13.977Z,0
2023-04-21T00:02:12.188Z,0
2023-04-21T00:03:46.380Z,0
2023-04-21T00:05:02.581Z,0
2023-04-21T00:06:18.000Z,0
2023-04-21T00:07:34.972Z,0
2023-04-21T00:08:33.165Z,0
2023-04-21T00:10:07.348Z,0
2023-04-21T00:11:23.543Z,0
2023-04-21T00:12:38.000Z,0
2023-04-21T00:13:36.966Z,0
2023-04-21T00:15:11.148Z,0
2023-04-21T00:16:27.356Z,0
2023-04-21T00:17:43.552Z,0
2023-04-21T00:18:59.000Z,0
2023-04-21T00:20:15.931Z,0
2023-04-21T00:21:32.000Z,0
2023-04-21T00:22:48.322Z,0
2023-04-21T00:24:04.524Z,0
2023-04-21T00:25:20.724Z,0
2023-04-21T00:26:36.000Z,0
2023-04-21T00:27:53.000Z,0
2023-04-21T00:28:51.309Z,0
2023-04-21T00:30:24.522Z,0
2023-04-21T00:31:40.717Z,0
2023-04-21T00:32:56.000Z,0
2023-04-21T00:33:55.109Z,0
2023-04-21T00:35:29.305Z,0
2023-04-21T00:36:27.500Z,0
2023-04-21T00:38:01.700Z,0
2023-04-21T00:39:17.888Z,0
2023-04-21T00:40:34.086Z,0
2023-04-21T00:41:31.304Z,0
2023-04-21T00:43:05.000Z,0
2023-04-21T00:44:21.695Z,0
2023-04-21T00:45:37.886Z,0
2023-04-21T00:46:36.085Z,0
2023-04-21T00:48:10.281Z,0
2023-04-21T00:49:26.462Z,0
2023-04-21T00:50:42.666Z,0
2023-04-21T00:51:58.865Z,0
2023-04-21T00:53:15.063Z,0
2023-04-21T00:54:31.248Z,0
2023-04-21T00:55:47.453Z,0
2023-04-21T00:57:03.648Z,0
2023-04-21T00:58:19.000Z,0
2023-04-21T00:59:18.040Z,0
2023-04-21T01:00:51.000Z,0
2023-04-21T01:01:49.447Z,0
2023-04-21T01:03:23.000Z,0
2023-04-21T01:04:39.832Z,0
2023-04-21T01:05:56.034Z,0
2023-04-21T01:07:12.000Z,0
2023-04-21T01:08:28.423Z,0
2023-04-21T01:09:44.000Z,0
2023-04-21T01:11:00.815Z,0
2023-04-21T01:12:17.012Z,0
2023-04-21T01:13:33.000Z,0
2023-04-21T01:14:49.390Z,0
2023-04-21T01:16:05.587Z,0
2023-04-21T01:17:03.795Z,0
2023-04-21T01:18:37.000Z,0
2023-04-21T01:19:35.203Z,0
2023-04-21T01:21:09.000Z,0
2023-04-21T01:22:25.000Z,0
2023-04-21T01:23:41.786Z,0
2023-04-21T01:24:57.973Z,0
2023-04-21T01:26:14.178Z,0
2023-04-21T01:27:30.000Z,0
2023-04-21T01:28:46.562Z,0
2023-04-21T01:29:44.767Z,0
2023-04-21T01:31:18.963Z,0
2023-04-21T01:32:35.159Z,0
2023-04-21T01:34:17.000Z,0
2023-04-21T01:35:06.000Z,0
2023-04-21T01:36:22.000Z,0
2023-04-21T01:37:20.954Z,0
2023-04-21T01:38:55.151Z,0
2023-04-21T01:40:11.332Z,0
2023-04-21T01:41:27.544Z,0
2023-04-21T01:42:43.743Z,0
2023-04-21T01:43:59.000Z,0
2023-04-21T01:44:58.128Z,0
2023-04-21T01:46:32.313Z,0
2023-04-21T01:47:48.000Z,0
2023-04-21T01:48:46.714Z,0
2023-04-21T01:50:02.909Z,0
2023-04-21T01:51:36.000Z,0
2023-04-21T01:52:52.305Z,0
2023-04-21T01:54:08.000Z,0
2023-04-21T01:55:24.706Z,0
2023-04-21T01:56:40.902Z,0
2023-04-21T01:57:39.096Z,0
2023-04-21T01:59:13.292Z,0
2023-04-21T02:00:29.487Z,0
2023-04-21T02:01:45.686Z,0
2023-04-21T02:02:43.877Z,0
2023-04-21T02:04:18.059Z,0
2023-04-21T02:05:16.267Z,0
2023-04-21T02:06:50.000Z,0
2023-04-21T02:08:06.663Z,0
2023-04-21T02:09:21.867Z,0
2023-04-21T02:10:20.065Z,0
2023-04-21T02:11:36.261Z,0
2023-04-21T02:13:10.000Z,0
2023-04-21T02:14:26.000Z,0
2023-04-21T02:15:24.846Z,0
2023-04-21T02:16:59.000Z,0
2023-04-21T02:17:57.236Z,0
2023-04-21T02:19:13.431Z,0
2023-04-21T02:20:29.626Z,0
2023-04-21T02:22:03.000Z,0
2023-04-21T02:23:20.007Z,0
2023-04-21T02:24:36.205Z,0
2023-04-21T02:25:51.424Z,0
2023-04-21T02:27:07.614Z,0
2023-04-21T02:28:23.808Z,0
2023-04-21T02:29:40.000Z,0
2023-04-21T02:30:38.204Z,0
2023-04-21T02:32:12.396Z,0
2023-04-21T02:33:28.000Z,0
2023-04-21T02:34:44.791Z,0
2023-04-21T02:35:42.985Z,0
2023-04-21T02:37:17.000Z,0
2023-04-21T02:38:33.375Z,0
2023-04-21T02:39:49.000Z,0
2023-04-21T02:40:47.765Z,0
2023-04-21T02:42:47.000Z,0
2023-04-21T02:43:19.172Z,0
2023-04-21T02:44:53.000Z,0
2023-04-21T02:46:09.000Z,0
2023-04-21T02:47:25.745Z,0
2023-04-21T02:48:23.953Z,0
2023-04-21T02:49:58.148Z,0
2023-04-21T02:51:14.000Z,0
2023-04-21T02:52:30.538Z,0
2023-04-21T02:53:46.720Z,0
2023-04-21T02:55:02.000Z,0
2023-04-21T02:56:01.124Z,0
2023-04-21T02:57:35.000Z,0
2023-04-21T02:58:33.513Z,0
2023-04-21T03:00:06.000Z,0
2023-04-21T03:01:04.920Z,0
2023-04-21T03:02:39.118Z,0
2023-04-21T03:03:55.000Z,0
2023-04-21T03:05:11.000Z,0
2023-04-21T03:06:09.701Z,0
2023-04-21T03:07:43.897Z,0
2023-04-21T03:09:00.090Z,0
2023-04-21T03:10:16.285Z,0
2023-04-21T03:11:14.483Z,0
2023-04-21T03:12:30.678Z,0
2023-04-21T03:13:46.874Z,0
2023-04-21T03:15:21.069Z,0
2023-04-21T03:16:37.265Z,0
2023-04-21T03:17:35.460Z,0
2023-04-21T03:19:08.669Z,0
2023-04-21T03:20:24.000Z,0
2023-04-21T03:21:23.062Z,0
2023-04-21T03:22:57.000Z,0
2023-04-21T03:23:55.452Z,4
2023-04-21T03:25:29.648Z,0
2023-04-21T03:26:45.847Z,0
2023-04-21T03:28:02.000Z,4
2023-04-21T03:29:18.000Z,4
2023-04-21T03:30:34.000Z,4
2023-04-21T03:31:32.624Z,4
2023-04-21T03:33:06.810Z,8
2023-04-21T03:34:23.005Z,8
2023-04-21T03:35:38.231Z,8
2023-04-21T03:36:36.422Z,12
2023-04-21T03:38:10.000Z,8
2023-04-21T03:39:08.813Z,16
2023-04-21T03:40:43.009Z,16
2023-04-21T03:41:59.000Z,16
2023-04-21T03:43:15.390Z,20
2023-04-21T03:44:13.593Z,24
2023-04-21T03:45:47.788Z,28
2023-04-21T03:47:03.972Z,40
2023-04-21T03:48:20.168Z,44
2023-04-21T03:49:18.373Z,48
2023-04-21T03:50:34.568Z,56
2023-04-21T03:51:49.777Z,68
2023-04-21T03:53:23.000Z,80
2023-04-21T03:54:40.167Z,88
2023-04-21T03:55:38.362Z,104
2023-04-21T03:57:12.548Z,116
2023-04-21T03:58:55.000Z,128
2023-04-21T03:59:26.947Z,144
2023-04-21T04:01:01.000Z,160
2023-04-21T04:02:17.332Z,176
2023-04-21T04:03:15.534Z,196
2023-04-21T04:04:31.728Z,216
2023-04-21T04:06:05.914Z,240
2023-04-21T04:07:22.118Z,260
2023-04-21T04:08:38.000Z,288
2023-04-21T04:09:36.508Z,308
2023-04-21T04:10:52.704Z,336
2023-04-21T04:12:08.899Z,364
2023-04-21T04:13:24.111Z,392
2023-04-21T04:14:58.298Z,420
2023-04-21T04:16:14.501Z,452
2023-04-21T04:17:30.689Z,484
2023-04-21T04:18:46.890Z,516
2023-04-21T04:20:03.000Z,552
2023-04-21T04:21:19.275Z,592
2023-04-21T04:22:17.469Z,628
2023-04-21T04:23:51.000Z,664
2023-04-21T04:25:07.863Z,700
2023-04-21T04:26:24.000Z,740
2023-04-21T04:27:40.238Z,776
2023-04-21T04:28:38.434Z,820
2023-04-21T04:29:54.627Z,860
2023-04-21T04:31:27.828Z,896
2023-04-21T04:32:44.029Z,940
2023-04-21T04:34:00.000Z,980
2023-04-21T04:35:16.405Z,1020
2023-04-21T04:36:32.000Z,1064
2023-04-21T04:37:48.796Z,1108
2023-04-21T04:39:05.000Z,1148
2023-04-21T04:40:03.188Z,1192
2023-04-21T04:41:37.000Z,1232
2023-04-21T04:43:20.000Z,1280
2023-04-21T04:44:09.772Z,1320
2023-04-21T04:45:25.000Z,1364
2023-04-21T04:46:42.152Z,1408
2023-04-21T04:47:57.363Z,1448
2023-04-21T04:49:13.000Z,1496
2023-04-21T04:50:11.749Z,1536
2023-04-21T04:51:45.948Z,1584
2023-04-21T04:52:44.135Z,1628
2023-04-21T04:54:18.321Z,1676
2023-04-21T04:55:34.000Z,1720
2023-04-21T04:56:50.000Z,1760
2023-04-21T04:58:06.906Z,1812
2023-04-21T04:59:23.000Z,1856
2023-04-21T05:00:39.291Z,1900
2023-04-21T05:01:54.000Z,1948
2023-04-21T05:02:52.700Z,1988
2023-04-21T05:04:26.889Z,2032
2023-04-21T05:05:25.086Z,2072
2023-04-21T05:06:59.000Z,2116
2023-04-21T05:07:57.473Z,2156
2023-04-21T05:09:31.666Z,2192
2023-04-21T05:10:47.000Z,2236
2023-04-21T05:12:04.051Z,2272
2023-04-21T05:13:20.245Z,2316
2023-04-21T05:14:18.437Z,2348
2023-04-21T05:15:52.620Z,2388
2023-04-21T05:17:08.812Z,2428
2023-04-21T05:18:06.033Z,2464
2023-04-21T05:19:40.000Z,2504
2023-04-21T05:20:38.420Z,2540
2023-04-21T05:22:12.608Z,2580
2023-04-21T05:23:28.000Z,2612
2023-04-21T05:24:45.000Z,2644
2023-04-21T05:25:43.192Z,2676
2023-04-21T05:27:17.381Z,2712
2023-04-21T05:28:15.578Z,2744
2023-04-21T05:29:49.773Z,2772
2023-04-21T05:31:05.963Z,2816
2023-04-21T05:32:22.156Z,2852
2023-04-21T05:33:38.338Z,2892
2023-04-21T05:34:54.550Z,2924
2023-04-21T05:36:10.000Z,2956
2023-04-21T05:37:27.000Z,2988
2023-04-21T05:38:25.244Z,3020
2023-04-21T05:39:59.000Z,3056
2023-04-21T05:40:57.631Z,3088
2023-04-21T05:42:31.000Z,3120
2023-04-21T05:43:30.017Z,3148
2023-04-21T05:45:04.209Z,3180
2023-04-21T05:46:20.405Z,3212
2023-04-21T05:47:36.000Z,3244
2023-04-21T05:48:52.000Z,3276
2023-04-21T05:50:08.982Z,3308
2023-04-21T05:51:51.000Z,3340
2023-04-21T05:52:23.368Z,3364
2023-04-21T05:53:39.562Z,3400
2023-04-21T05:55:12.000Z,3424
2023-04-21T05:56:10.964Z,3456
2023-04-21T05:57:45.000Z,3476
2023-04-21T05:58:43.350Z,3504
2023-04-21T06:00:17.000Z,3536
2023-04-21T06:01:33.000Z,3568
2023-04-21T06:02:49.000Z,3592
2023-04-21T06:04:06.115Z,3620
2023-04-21T06:05:22.000Z,3648
2023-04-21T06:06:38.508Z,3680
2023-04-21T06:07:54.000Z,3700
2023-04-21T06:09:10.883Z,3736
2023-04-21T06:10:27.092Z,3764
2023-04-21T06:11:24.296Z,3788
2023-04-21T06:12:58.480Z,3812
2023-04-21T06:14:14.000Z,3836
2023-04-21T06:15:12.878Z,3864
2023-04-21T06:16:47.071Z,3880
2023-04-21T06:18:03.000Z,3908
2023-04-21T06:19:19.000Z,3936
2023-04-21T06:20:17.650Z,3964
2023-04-21T06:21:33.844Z,3984
2023-04-21T06:23:08.037Z,4008
2023-04-21T06:24:50.000Z,4096
2023-04-21T06:25:40.000Z,4048
2023-04-21T06:26:56.000Z,4072
2023-04-21T06:28:12.813Z,4088
2023-04-21T06:29:11.004Z,4116
2023-04-21T06:30:45.000Z,4140
2023-04-21T06:31:42.404Z,4160
2023-04-21T06:33:16.000Z,4176
2023-04-21T06:34:32.784Z,4192
2023-04-21T06:35:48.985Z,4208
2023-04-21T06:36:47.177Z,4440
2023-04-21T06:38:21.000Z,4260
2023-04-21T06:39:37.564Z,4276
2023-04-21T06:40:53.000Z,4296
2023-04-21T06:41:51.951Z,4312
2023-04-21T06:43:26.152Z,4332
2023-04-21T06:44:24.338Z,4344
2023-04-21T06:45:58.532Z,4364
2023-04-21T06:46:56.724Z,4392
2023-04-21T06:48:30.918Z,4408
2023-04-21T06:49:47.103Z,4428
2023-04-21T06:51:02.320Z,4440
2023-04-21T06:52:18.000Z,4464
2023-04-21T06:53:34.000Z,4480
2023-04-21T06:54:32.901Z,4496
2023-04-21T06:56:07.000Z,4512
2023-04-21T06:57:05.289Z,4528
2023-04-21T06:59:05.000Z,4544
2023-04-21T06:59:37.675Z,4552
2023-04-21T07:01:11.863Z,4572
2023-04-21T07:02:10.062Z,4584
2023-04-21T07:03:44.255Z,4600
2023-04-21T07:05:00.000Z,4620
2023-04-21T07:06:16.000Z,4636
2023-04-21T07:07:14.837Z,4644
2023-04-21T07:08:48.000Z,4656
2023-04-21T07:09:46.239Z,4668
2023-04-21T07:11:20.433Z,4684
2023-04-21T07:12:18.626Z,4696
2023-04-21T07:13:52.811Z,4788
2023-04-21T07:15:09.004Z,4716
2023-04-21T07:16:25.194Z,4732
2023-04-21T07:17:41.000Z,4744
2023-04-21T07:18:57.000Z,4760
2023-04-21T07:20:13.782Z,4772
2023-04-21T07:21:29.979Z,4780
2023-04-21T07:22:46.162Z,5128
2023-04-21T07:24:02.369Z,4816
2023-04-21T07:24:59.575Z,4824
2023-04-21T07:26:33.000Z,4848
2023-04-21T07:27:31.962Z,4912
2023-04-21T07:29:06.000Z,4864
2023-04-21T07:30:22.349Z,4880
2023-04-21T07:31:38.540Z,4888
2023-04-21T07:32:54.000Z,4896
2023-04-21T07:34:10.928Z,4900
2023-04-21T07:35:09.121Z,4916
2023-04-21T07:36:25.314Z,4924
2023-04-21T07:37:41.507Z,4932
2023-04-21T07:39:15.697Z,4968
2023-04-21T07:40:13.894Z,4964
2023-04-21T07:41:47.104Z,4968
2023-04-21T07:43:03.000Z,4972
2023-04-21T07:44:19.000Z,4976
2023-04-21T07:45:17.682Z,4992
2023-04-21T07:46:33.874Z,5008
2023-04-21T07:48:08.063Z,5016
2023-04-21T07:49:24.000Z,5028
2023-04-21T07:50:22.453Z,5048
2023-04-21T07:51:56.000Z,5052
2023-04-21T07:52:54.838Z,5064
2023-04-21T07:54:29.031Z,5072
2023-04-21T07:55:45.224Z,5084
2023-04-21T07:57:01.000Z,5088
2023-04-21T07:58:17.605Z,5092
2023-04-21T07:59:59.000Z,5108
2023-04-21T08:00:31.011Z,5100
2023-04-21T08:02:05.208Z,5112
2023-04-21T08:03:47.000Z,5616
2023-04-21T08:04:37.585Z,5124
2023-04-21T08:05:35.783Z,5132
2023-04-21T08:07:09.964Z,5132
2023-04-21T08:08:26.000Z,5140
2023-04-21T08:10:08.000Z,5148
2023-04-21T08:10:58.543Z,5172
2023-04-21T08:12:14.000Z,5168
2023-04-21T08:13:30.947Z,5180
2023-04-21T08:14:47.000Z,5188
2023-04-21T08:16:03.000Z,5200
2023-04-21T08:17:18.534Z,5216
2023-04-21T08:18:16.726Z,5308
2023-04-21T08:19:50.919Z,5212
2023-04-21T08:21:07.000Z,5228
2023-04-21T08:22:23.000Z,5240
2023-04-21T08:23:39.497Z,5256
2023-04-21T08:24:55.000Z,5252
2023-04-21T08:26:11.883Z,5268
2023-04-21T08:27:28.000Z,5264
2023-04-21T08:28:44.271Z,5276
2023-04-21T08:30:00.462Z,5280
2023-04-21T08:31:16.648Z,5288
2023-04-21T08:32:32.837Z,5296
2023-04-21T08:33:49.000Z,5300
2023-04-21T08:35:05.000Z,6412
2023-04-21T08:36:21.412Z,5308
2023-04-21T08:37:37.675Z,5476
2023-04-21T08:38:53.000Z,5468
2023-04-21T08:40:10.000Z,5736
2023-04-21T08:41:08.254Z,5312
2023-04-21T08:42:41.000Z,5312
2023-04-21T08:43:57.000Z,5320
2023-04-21T08:45:13.000Z,5400
2023-04-21T08:46:30.000Z,5344
2023-04-21T08:47:46.000Z,5704
2023-04-21T08:49:02.419Z,5348
2023-04-21T08:50:18.000Z,5548
2023-04-21T08:51:16.813Z,5664
2023-04-21T08:52:51.006Z,5380
2023-04-21T08:54:07.000Z,5368
2023-04-21T08:55:23.393Z,5384
2023-04-21T08:56:21.586Z,5392
2023-04-21T08:57:55.000Z,5436
2023-04-21T08:59:11.972Z,5448
2023-04-21T09:00:28.164Z,5444
2023-04-21T09:01:44.356Z,5396
2023-04-21T09:02:59.570Z,5388
2023-04-21T09:03:57.760Z,5400
2023-04-21T09:05:31.000Z,5496
2023-04-21T09:06:48.145Z,5400
2023-04-21T09:08:04.331Z,5396
2023-04-21T09:09:20.522Z,5404
2023-04-21T09:10:36.000Z,5412
2023-04-21T09:11:52.000Z,5408
2023-04-21T09:13:09.112Z,5412
2023-04-21T09:14:07.305Z,5424
2023-04-21T09:15:41.498Z,5648
2023-04-21T09:16:39.691Z,5632
2023-04-21T09:18:13.000Z,5412
2023-04-21T09:19:12.076Z,5412
2023-04-21T09:20:46.391Z,5424
2023-04-21T09:21:44.583Z,5424
2023-04-21T09:23:17.000Z,5424
2023-04-21T09:24:33.000Z,5560
2023-04-21T09:25:50.000Z,5680
2023-04-21T09:26:48.377Z,5444
2023-04-21T09:28:22.000Z,5896
2023-04-21T09:29:20.764Z,5476
2023-04-21T09:30:54.000Z,5580
2023-04-21T09:32:11.000Z,5464
2023-04-21T09:33:27.339Z,5480
2023-04-21T09:34:25.536Z,5504
2023-04-21T09:35:59.000Z,5548
2023-04-21T09:37:15.000Z,5540
2023-04-21T09:38:32.000Z,5684
2023-04-21T09:39:48.313Z,5952
2023-04-21T09:41:04.000Z,5560
2023-04-21T09:42:20.816Z,5572
2023-04-21T09:43:37.000Z,5580
2023-04-21T09:44:35.204Z,5652
2023-04-21T09:46:09.398Z,5540
2023-04-21T09:47:25.583Z,5540
2023-04-21T09:48:41.000Z,5528
2023-04-21T09:49:57.000Z,5516
2023-04-21T09:51:14.000Z,5516
2023-04-21T09:52:12.366Z,5520
2023-04-21T09:53:46.559Z,5624
2023-04-21T09:55:02.741Z,5712
2023-04-21T09:56:18.000Z,5568
2023-04-21T09:57:17.140Z,5540
2023-04-21T09:58:51.333Z,5552
2023-04-21T09:59:49.527Z,5864
2023-04-21T10:01:23.720Z,5548
2023-04-21T10:02:39.915Z,5568
2023-04-21T10:03:56.108Z,5584
2023-04-21T10:05:12.291Z,5560
2023-04-21T10:06:28.000Z,5672
2023-04-21T10:07:26.689Z,5576
2023-04-21T10:09:00.887Z,5640
2023-04-21T10:09:59.198Z,5872
2023-04-21T10:11:33.390Z,5584
2023-04-21T10:12:49.586Z,5608
2023-04-21T10:14:05.779Z,5604
2023-04-21T10:15:21.000Z,5660
2023-04-21T10:16:38.160Z,5688
2023-04-21T10:17:36.360Z,5620
2023-04-21T10:19:10.553Z,5628
2023-04-21T10:20:26.739Z,5632
2023-04-21T10:21:42.000Z,5668
2023-04-21T10:22:59.125Z,5648
2023-04-21T10:24:15.319Z,5644
2023-04-21T10:25:13.520Z,5648
2023-04-21T10:26:47.713Z,5860
2023-04-21T10:28:02.000Z,5652
2023-04-21T10:29:19.000Z,5648
2023-04-21T10:30:35.000Z,5648
2023-04-21T10:31:51.506Z,5656
2023-04-21T10:33:07.697Z,6116
2023-04-21T10:34:23.000Z,5640
2023-04-21T10:35:40.079Z,5656
2023-04-21T10:36:56.000Z,5660
2023-04-21T10:37:54.471Z,5672
2023-04-21T10:39:28.664Z,5696
2023-04-21T10:40:44.000Z,6328
2023-04-21T10:42:01.045Z,5672
2023-04-21T10:43:17.000Z,5668
2023-04-21T10:44:33.000Z,5748
2023-04-21T10:45:49.000Z,5688
2023-04-21T10:47:05.821Z,5692
2023-04-21T10:48:03.032Z,6132
2023-04-21T10:49:37.217Z,5704
2023-04-21T10:50:53.407Z,5724
2023-04-21T10:52:09.000Z,5720
2023-04-21T10:53:25.000Z,5724
2023-04-21T10:55:08.000Z,5836
2023-04-21T10:55:40.191Z,5788
2023-04-21T10:57:14.384Z,5764
2023-04-21T10:58:30.577Z,5744
2023-04-21T10:59:46.000Z,5760
2023-04-21T11:00:44.963Z,5756
2023-04-21T11:02:19.000Z,5768
2023-04-21T11:03:35.355Z,5780
2023-04-21T11:04:50.000Z,5772
2023-04-21T11:06:06.000Z,5780
2023-04-21T11:07:22.000Z,5780
2023-04-21T11:08:21.137Z,6064
2023-04-21T11:09:55.000Z,5828
2023-04-21T11:11:11.000Z,5884
2023-04-21T11:12:27.000Z,5908
2023-04-21T11:13:43.897Z,6192
2023-04-21T11:15:00.000Z,5900
2023-04-21T11:15:58.294Z,5904
2023-04-21T11:17:32.476Z,5940
2023-04-21T11:18:48.000Z,5920
2023-04-21T11:20:04.868Z,5928
2023-04-21T11:21:21.065Z,6288
2023-04-21T11:22:37.258Z,6008
2023-04-21T11:23:35.451Z,6048
2023-04-21T11:25:09.645Z,6128
2023-04-21T11:26:06.852Z,6372
2023-04-21T11:27:41.000Z,6064
2023-04-21T11:28:39.237Z,6044
2023-04-21T11:30:13.000Z,6264
2023-04-21T11:31:29.000Z,6100
2023-04-21T11:32:45.809Z,6152
2023-04-21T11:34:02.000Z,6292
2023-04-21T11:35:18.000Z,6180
2023-04-21T11:36:34.382Z,6148
2023-04-21T11:37:50.000Z,6316
2023-04-21T11:39:06.768Z,6480
2023-04-21T11:40:22.963Z,6404
2023-04-21T11:41:21.163Z,6384
2023-04-21T11:42:54.000Z,6204
2023-04-21T11:44:10.000Z,6176
2023-04-21T11:45:26.000Z,6344
2023-04-21T11:46:42.000Z,6180
2023-04-21T11:47:59.142Z,6424
2023-04-21T11:49:15.331Z,6332
2023-04-21T11:50:31.000Z,6280
2023-04-21T11:51:29.721Z,6332
2023-04-21T11:53:03.000Z,6356
2023-04-21T11:54:02.106Z,6372
2023-04-21T11:55:36.291Z,6532
2023-04-21T11:56:52.491Z,6396
2023-04-21T11:57:50.683Z,6364
2023-04-21T11:59:24.863Z,6640
2023-04-21T12:00:41.069Z,6348
2023-04-21T12:01:39.262Z,6408
2023-04-21T12:03:13.451Z,6408
2023-04-21T12:04:10.663Z,6452
2023-04-21T12:05:44.856Z,6440
2023-04-21T12:07:01.000Z,6484
2023-04-21T12:08:17.000Z,6572
2023-04-21T12:09:33.434Z,6568
2023-04-21T12:10:49.626Z,6588
2023-04-21T12:12:05.000Z,6640
2023-04-21T12:13:22.000Z,6660
2023-04-21T12:14:20.204Z,6704
2023-04-21T12:16:20.000Z,6680
2023-04-21T12:16:52.589Z,6684
2023-04-21T12:18:26.778Z,6692
2023-04-21T12:19:24.973Z,6660
2023-04-21T12:20:40.183Z,6668
2023-04-21T12:22:14.373Z,6732
2023-04-21T12:23:30.000Z,6720
2023-04-21T12:24:46.000Z,6748
2023-04-21T12:26:02.952Z,6832
2023-04-21T12:27:19.134Z,6796
2023-04-21T12:28:35.326Z,6700
2023-04-21T12:29:33.529Z,6748
2023-04-21T12:31:07.000Z,6804
2023-04-21T12:32:05.914Z,6692
2023-04-21T12:33:40.099Z,6704
2023-04-21T12:34:56.300Z,6860
2023-04-21T12:36:12.000Z,6740
2023-04-21T12:37:28.688Z,6712
2023-04-21T12:38:44.000Z,6748
2023-04-21T12:40:01.057Z,6828
2023-04-21T12:41:17.263Z,6908
2023-04-21T12:42:33.443Z,6852
2023-04-21T12:43:48.663Z,6484
2023-04-21T12:44:46.857Z,6796
2023-04-21T12:46:21.000Z,5224
2023-04-21T12:47:37.000Z,6548
2023-04-21T12:48:53.431Z,5916
2023-04-21T12:50:09.627Z,5172
2023-04-21T12:51:25.817Z,5028
2023-04-21T12:52:42.017Z,6524
2023-04-21T12:53:58.000Z,5040
2023-04-21T12:54:56.397Z,6640
2023-04-21T12:56:30.590Z,6372
2023-04-21T12:57:46.000Z,6516
2023-04-21T12:59:02.961Z,6556
2023-04-21T13:00:18.183Z,6748
2023-04-21T13:01:34.000Z,6744
2023-04-21T13:02:50.000Z,6748
2023-04-21T13:04:06.759Z,6736
2023-04-21T13:05:22.000Z,6712
2023-04-21T13:06:39.140Z,6764
2023-04-21T13:08:21.000Z,6828
2023-04-21T13:09:11.520Z,6936
2023-04-21T13:10:09.725Z,7024
2023-04-21T13:11:43.916Z,7256
2023-04-21T13:13:00.110Z,7144
2023-04-21T13:14:16.000Z,7000
2023-04-21T13:15:32.486Z,6996
2023-04-21T13:16:48.689Z,7036
2023-04-21T13:17:46.881Z,6984
2023-04-21T13:19:20.092Z,6976
2023-04-21T13:20:36.284Z,6972
2023-04-21T13:22:18.000Z,7104
2023-04-21T13:23:08.656Z,6996
2023-04-21T13:24:24.857Z,7384
2023-04-21T13:25:41.053Z,7176
2023-04-21T13:26:57.232Z,7168
2023-04-21T13:28:13.440Z,6116
2023-04-21T13:29:29.000Z,6540
2023-04-21T13:30:45.811Z,7252
2023-04-21T13:32:02.010Z,7808
2023-04-21T13:33:00.209Z,8192
2023-04-21T13:34:34.394Z,8296
2023-04-21T13:35:32.594Z,8344
2023-04-21T13:37:05.791Z,8528
2023-04-21T13:38:21.018Z,8760
2023-04-21T13:39:37.000Z,8912
2023-04-21T13:40:53.403Z,9104
2023-04-21T13:42:09.587Z,9356
2023-04-21T13:43:25.793Z,10164
2023-04-21T13:44:41.000Z,12732
2023-04-21T13:45:58.176Z,15104
2023-04-21T13:47:14.000Z,7880
2023-04-21T13:48:12.562Z,13336
2023-04-21T13:49:46.000Z,13336
2023-04-21T13:51:02.950Z,12768
2023-04-21T13:52:19.000Z,6848
2023-04-21T13:54:01.000Z,6396
2023-04-21T13:54:51.000Z,6436
2023-04-21T13:55:49.726Z,8468
2023-04-21T13:57:23.907Z,11704
2023-04-21T13:58:22.114Z,11080
2023-04-21T13:59:56.296Z,11548
2023-04-21T14:01:37.000Z,10804
2023-04-21T14:02:27.000Z,8772
2023-04-21T14:03:43.000Z,8244
2023-04-21T14:05:00.093Z,8140
2023-04-21T14:06:16.287Z,8192
2023-04-21T14:07:32.492Z,8036
2023-04-21T14:08:48.673Z,8348
2023-04-21T14:10:04.000Z,8180
2023-04-21T14:11:21.000Z,6944
2023-04-21T14:12:37.270Z,7928
2023-04-21T14:13:53.000Z,7544
2023-04-21T14:15:36.000Z,8288
2023-04-21T14:16:25.000Z,8280
2023-04-21T14:17:42.000Z,8196
2023-04-21T14:18:58.246Z,8312
2023-04-21T14:20:13.449Z,8384
2023-04-21T14:21:29.639Z,8292
2023-04-21T14:22:45.000Z,8288
2023-04-21T14:24:02.039Z,8236
2023-04-21T14:25:18.234Z,8276
2023-04-21T14:26:34.000Z,7808
2023-04-21T14:27:50.616Z,7460
2023-04-21T14:29:06.000Z,8500
2023-04-21T14:30:23.000Z,8588
2023-04-21T14:31:21.209Z,8824
2023-04-21T14:32:55.000Z,8880
2023-04-21T14:33:53.598Z,8748
2023-04-21T14:35:27.798Z,8984
2023-04-21T14:36:25.988Z,9100
2023-04-21T14:37:59.189Z,9032
2023-04-21T14:39:41.000Z,9112
2023-04-21T14:40:31.000Z,9464
2023-04-21T14:41:47.000Z,9432
2023-04-21T14:43:03.000Z,9708
2023-04-21T14:44:20.172Z,9760
2023-04-21T14:45:18.368Z,9692
2023-04-21T14:46:52.568Z,9572
2023-04-21T14:48:08.000Z,9708
2023-04-21T14:49:24.954Z,9836
2023-04-21T14:50:41.144Z,9896
2023-04-21T14:51:57.332Z,10020
2023-04-21T14:53:13.526Z,10060
2023-04-21T14:54:29.000Z,10008
2023-04-21T14:55:45.000Z,10164
2023-04-21T14:57:02.123Z,10216
2023-04-21T14:58:18.318Z,10616
2023-04-21T14:59:34.501Z,10612
2023-04-21T15:00:50.698Z,10620
2023-04-21T15:02:06.000Z,10712
2023-04-21T15:03:23.000Z,10884
2023-04-21T15:04:21.293Z,10736
2023-04-21T15:05:55.484Z,11160
2023-04-21T15:07:10.000Z,11028
2023-04-21T15:08:53.000Z,10936
2023-04-21T15:09:25.089Z,11280
2023-04-21T15:10:59.278Z,11528
2023-04-21T15:11:57.479Z,11664
2023-04-21T15:13:31.664Z,11716
2023-04-21T15:14:29.869Z,11428
2023-04-21T15:16:04.064Z,11556
2023-04-21T15:17:02.258Z,11460
2023-04-21T15:18:36.442Z,11568
2023-04-21T15:19:52.648Z,11572
2023-04-21T15:21:08.841Z,11704
2023-04-21T15:22:25.033Z,10940
2023-04-21T15:23:41.231Z,11500
2023-04-21T15:24:57.000Z,11116
2023-04-21T15:26:13.000Z,11808
2023-04-21T15:27:29.000Z,11548
2023-04-21T15:28:46.006Z,11720
2023-04-21T15:29:43.224Z,11900
2023-04-21T15:31:17.000Z,11828
2023-04-21T15:32:33.614Z,12012
2023-04-21T15:33:49.806Z,12284
2023-04-21T15:35:05.990Z,12172
2023-04-21T15:36:22.000Z,12028
2023-04-21T15:37:20.394Z,12032
2023-04-21T15:38:54.000Z,11804
2023-04-21T15:39:52.784Z,12232
2023-04-21T15:41:26.000Z,12220
2023-04-21T15:42:43.164Z,11852
2023-04-21T15:43:59.367Z,11972
2023-04-21T15:45:15.564Z,11968
2023-04-21T15:46:31.765Z,12244
2023-04-21T15:47:46.957Z,12172
2023-04-21T15:49:03.000Z,11944
2023-04-21T15:50:19.361Z,12048
2023-04-21T15:51:35.546Z,11432
2023-04-21T15:52:51.000Z,12276
2023-04-21T15:54:07.937Z,11932
2023-04-21T15:55:24.143Z,12324
2023-04-21T15:56:40.000Z,12340
2023-04-21T15:57:56.000Z,12424
2023-04-21T15:59:12.000Z,11408
2023-04-21T16:00:10.923Z,12120
2023-04-21T16:01:45.000Z,12488
2023-04-21T16:03:01.311Z,12520
2023-04-21T16:04:17.000Z,12532
2023-04-21T16:05:33.692Z,12360
2023-04-21T16:06:48.000Z,12548
2023-04-21T16:08:05.109Z,12840
2023-04-21T16:09:47.000Z,12368
2023-04-21T16:10:37.499Z,12388
2023-04-21T16:11:53.000Z,12288
2023-04-21T16:13:09.885Z,12540
2023-04-21T16:14:26.000Z,12548
2023-04-21T16:15:24.280Z,12688
2023-04-21T16:16:40.476Z,12564
2023-04-21T16:17:56.670Z,12500
2023-04-21T16:19:30.000Z,12272
2023-04-21T16:20:47.052Z,12664
2023-04-21T16:22:03.256Z,12476
2023-04-21T16:23:19.000Z,12448
2023-04-21T16:24:35.000Z,12460
2023-04-21T16:25:51.833Z,13724
2023-04-21T16:27:07.053Z,13188
2023-04-21T16:28:23.240Z,12732
2023-04-21T16:29:39.442Z,12660
2023-04-21T16:30:55.000Z,19584
2023-04-21T16:32:38.000Z,33696
2023-04-21T16:33:10.027Z,36576
2023-04-21T16:34:44.000Z,35296
2023-04-21T16:36:00.000Z,35008
2023-04-21T16:37:16.000Z,35712
2023-04-21T16:38:14.808Z,34752
2023-04-21T16:39:48.999Z,33312
2023-04-21T16:41:05.191Z,31776
2023-04-21T16:42:21.394Z,32704
2023-04-21T16:43:19.589Z,32480
2023-04-21T16:44:53.000Z,32160
2023-04-21T16:45:51.980Z,31872
2023-04-21T16:47:52.000Z,30976
2023-04-21T16:48:42.000Z,31264
2023-04-21T16:49:58.565Z,31360
2023-04-21T16:51:14.760Z,29824
2023-04-21T16:52:30.000Z,29280
2023-04-21T16:54:13.000Z,29120
2023-04-21T16:54:44.362Z,29184
2023-04-21T16:56:18.000Z,29088
2023-04-21T16:57:34.000Z,28256
2023-04-21T16:58:50.946Z,27584
2023-04-21T17:00:07.141Z,26848
2023-04-21T17:01:23.336Z,26528
2023-04-21T17:02:39.000Z,24640
2023-04-21T17:03:37.727Z,24064
2023-04-21T17:05:38.000Z,24480
2023-04-21T17:06:28.110Z,24320
2023-04-21T17:07:44.301Z,23328
2023-04-21T17:09:00.507Z,22752
2023-04-21T17:09:58.703Z,22528
2023-04-21T17:11:31.910Z,20992
2023-04-21T17:12:48.000Z,20832